createdAt,value
2018-02-20T00:01:15.405Z,14.70
2018-02-20T00:03:43.025Z,14.70
2018-02-20T00:06:10.622Z,14.70
2018-02-20T00:08:38.632Z,14.70
2018-02-20T00:11:06.203Z,14.70
2018-02-20T00:13:33.777Z,14.70
2018-02-20T00:16:01.360Z,14.60
2018-02-20T00:18:28.945Z,14.60
2018-02-20T00:20:56.955Z,14.60
2018-02-20T00:23:25.286Z,14.60
2018-02-20T00:25:52.860Z,14.60
2018-02-20T00:28:20.411Z,14.60
2018-02-20T00:30:47.978Z,14.50
2018-02-20T00:33:15.565Z,14.60
2018-02-20T00:35:43.136Z,14.50
2018-02-20T00:38:10.865Z,14.50
2018-02-20T00:40:38.432Z,14.50
2018-02-20T00:43:06.005Z,14.50
2018-02-20T00:45:33.882Z,14.50
2018-02-20T00:48:01.456Z,14.50
2018-02-20T00:50:29.019Z,14.40
2018-02-20T00:52:56.582Z,14.40
2018-02-20T00:55:24.147Z,14.40
2018-02-20T00:57:51.812Z,14.40
2018-02-20T01:00:19.382Z,14.40
2018-02-20T01:02:47.135Z,14.40
2018-02-20T01:05:14.720Z,14.40
2018-02-20T01:07:42.304Z,14.40
2018-02-20T01:10:09.892Z,14.40
2018-02-20T01:12:37.467Z,14.40
2018-02-20T01:15:05.790Z,14.30
2018-02-20T01:17:33.351Z,14.30
2018-02-20T01:20:00.919Z,14.30
2018-02-20T01:22:28.858Z,14.30
2018-02-20T01:24:57.203Z,14.30
2018-02-20T01:27:24.881Z,14.30
2018-02-20T01:29:52.434Z,14.20
2018-02-20T01:32:19.990Z,14.20
2018-02-20T01:34:47.694Z,14.20
2018-02-20T01:37:15.284Z,14.20
2018-02-20T01:39:42.974Z,14.20
2018-02-20T01:42:10.540Z,14.20
2018-02-20T01:44:38.125Z,14.20
2018-02-20T01:47:05.710Z,14.20
2018-02-20T01:49:33.289Z,14.20
2018-02-20T01:52:00.856Z,14.20
2018-02-20T01:54:29.241Z,14.10
2018-02-20T01:56:56.803Z,14.10
2018-02-20T01:59:24.396Z,14.10
2018-02-20T02:01:52.731Z,14.10
2018-02-20T02:04:20.299Z,14.10
2018-02-20T02:06:47.866Z,14.10
2018-02-20T02:09:15.438Z,14.10
2018-02-20T02:11:43.023Z,14.00
2018-02-20T02:14:10.596Z,14.00
2018-02-20T02:16:39.030Z,14.00
2018-02-20T02:19:06.615Z,14.00
2018-02-20T02:21:34.180Z,14.00
2018-02-20T02:24:02.102Z,14.00
2018-02-20T02:26:29.675Z,14.00
2018-02-20T02:28:57.252Z,13.90
2018-02-20T02:31:24.823Z,13.90
2018-02-20T02:33:53.226Z,13.90
2018-02-20T02:36:20.808Z,13.90
2018-02-20T02:38:48.383Z,13.90
2018-02-20T02:41:15.965Z,13.90
2018-02-20T02:43:44.299Z,13.90
2018-02-20T02:46:11.897Z,13.80
2018-02-20T02:48:39.485Z,13.80
2018-02-20T02:51:07.822Z,13.80
2018-02-20T02:53:35.394Z,13.70
2018-02-20T02:56:02.968Z,13.70
2018-02-20T02:58:30.576Z,13.70
2018-02-20T03:00:58.200Z,13.70
2018-02-20T03:03:25.776Z,13.70
2018-02-20T03:05:53.343Z,13.70
2018-02-20T03:08:20.904Z,13.60
2018-02-20T03:10:48.563Z,13.60
2018-02-20T03:13:16.161Z,13.60
2018-02-20T03:15:44.503Z,13.60
2018-02-20T03:18:12.063Z,13.60
2018-02-20T03:20:39.627Z,13.60
2018-02-20T03:23:07.201Z,13.50
2018-02-20T03:25:34.795Z,13.50
2018-02-20T03:28:02.375Z,13.50
2018-02-20T03:30:30.753Z,13.50
2018-02-20T03:32:59.096Z,13.40
2018-02-20T03:35:26.656Z,13.40
2018-02-20T03:37:54.234Z,13.50
2018-02-20T03:40:21.810Z,13.40
2018-02-20T03:42:49.371Z,13.40
2018-02-20T03:45:16.938Z,13.40
2018-02-20T03:47:44.505Z,13.40
2018-02-20T03:50:12.432Z,13.40
2018-02-20T03:52:40.089Z,13.40
2018-02-20T03:55:08.444Z,13.40
2018-02-20T03:57:35.991Z,13.30
2018-02-20T04:00:03.548Z,13.30
2018-02-20T04:02:31.161Z,13.30
2018-02-20T04:04:59.493Z,13.30
2018-02-20T04:07:27.068Z,13.30
2018-02-20T04:09:54.801Z,13.30
2018-02-20T04:12:22.368Z,13.30
2018-02-20T04:14:49.975Z,13.30
2018-02-20T04:17:17.548Z,13.20
2018-02-20T04:19:45.145Z,13.20
2018-02-20T04:22:13.508Z,13.20
2018-02-20T04:24:41.074Z,13.20
2018-02-20T04:27:09.784Z,13.20
2018-02-20T04:29:38.116Z,13.20
2018-02-20T04:32:05.688Z,13.20
2018-02-20T04:34:33.268Z,13.20
2018-02-20T04:37:00.832Z,13.20
2018-02-20T04:39:28.427Z,13.20
2018-02-20T04:41:56.763Z,13.10
2018-02-20T04:44:24.326Z,13.10
2018-02-20T04:46:51.897Z,13.10
2018-02-20T04:49:19.463Z,13.10
2018-02-20T04:51:47.148Z,13.10
2018-02-20T04:54:14.712Z,13.10
2018-02-20T04:56:42.497Z,13.10
2018-02-20T04:59:10.065Z,13.00
2018-02-20T05:01:37.630Z,13.00
2018-02-20T05:04:05.511Z,13.00
2018-02-20T05:06:33.882Z,13.00
2018-02-20T05:09:01.400Z,13.00
2018-02-20T05:11:28.969Z,13.00
2018-02-20T05:13:56.538Z,13.00
2018-02-20T05:16:24.140Z,13.00
2018-02-20T05:18:51.711Z,13.00
2018-02-20T05:21:19.273Z,12.90
2018-02-20T05:23:46.984Z,12.90
2018-02-20T05:26:14.549Z,12.90
2018-02-20T05:28:42.133Z,12.90
2018-02-20T05:31:09.694Z,12.90
2018-02-20T05:33:37.268Z,12.90
2018-02-20T05:36:04.827Z,12.90
2018-02-20T05:38:32.378Z,12.90
2018-02-20T05:40:59.969Z,12.90
2018-02-20T05:43:27.529Z,12.90
2018-02-20T05:45:55.098Z,13.00
2018-02-20T05:48:22.690Z,13.10
2018-02-20T05:50:50.240Z,13.20
2018-02-20T05:53:17.874Z,13.30
2018-02-20T05:55:45.506Z,13.50
2018-02-20T05:58:13.085Z,13.60
2018-02-20T06:00:41.402Z,14.10
2018-02-20T06:03:09.146Z,14.10
2018-02-20T06:05:37.510Z,14.70
2018-02-20T06:08:05.852Z,15.00
2018-02-20T06:10:33.410Z,14.90
2018-02-20T06:13:00.977Z,15.20
2018-02-20T06:15:28.542Z,15.30
2018-02-20T06:17:56.147Z,15.50
2018-02-20T06:20:23.728Z,15.70
2018-02-20T06:22:52.175Z,16.00
2018-02-20T06:25:19.735Z,16.00
2018-02-20T06:27:47.307Z,16.20
2018-02-20T06:30:15.195Z,16.30
2018-02-20T06:32:42.765Z,16.40
2018-02-20T06:35:10.395Z,16.50
2018-02-20T06:37:37.964Z,16.60
2018-02-20T06:40:05.539Z,16.80
2018-02-20T06:42:33.117Z,16.90
2018-02-20T06:45:00.682Z,17.00
2018-02-20T06:47:28.241Z,17.10
2018-02-20T06:49:55.820Z,17.00
2018-02-20T06:52:23.403Z,16.90
2018-02-20T06:54:52.036Z,17.00
2018-02-20T06:57:19.601Z,17.00
2018-02-20T06:59:47.171Z,17.10
2018-02-20T07:02:14.742Z,17.10
2018-02-20T07:04:42.421Z,17.20
2018-02-20T07:07:10.350Z,17.30
2018-02-20T07:09:38.688Z,17.50
2018-02-20T07:12:07.086Z,17.70
2018-02-20T07:14:34.595Z,17.70
2018-02-20T07:17:02.163Z,17.70
2018-02-20T07:19:29.773Z,17.80
2018-02-20T07:21:57.348Z,17.70
2018-02-20T07:24:24.932Z,17.70
2018-02-20T07:26:53.265Z,17.50
2018-02-20T07:29:20.825Z,17.50
2018-02-20T07:31:48.770Z,17.40
2018-02-20T07:34:17.105Z,17.20
2018-02-20T07:36:44.690Z,17.20
2018-02-20T07:39:12.258Z,17.10
2018-02-20T07:41:40.609Z,16.90
2018-02-20T07:44:08.221Z,16.90
2018-02-20T07:46:35.787Z,16.80
2018-02-20T07:49:04.126Z,17.00
2018-02-20T07:51:31.695Z,17.00
2018-02-20T07:53:59.273Z,17.20
2018-02-20T07:56:27.185Z,17.40
2018-02-20T07:58:55.522Z,17.80
2018-02-20T08:01:23.094Z,17.80
2018-02-20T08:03:50.668Z,17.90
2018-02-20T08:06:18.229Z,18.10
2018-02-20T08:08:45.830Z,18.20
2018-02-20T08:11:14.165Z,18.50
2018-02-20T08:13:41.881Z,18.50
2018-02-20T08:16:10.211Z,18.60
2018-02-20T08:18:37.810Z,18.70
2018-02-20T08:21:05.395Z,18.80
2018-02-20T08:23:33.716Z,18.90
2018-02-20T08:26:01.286Z,18.80
2018-02-20T08:28:28.855Z,18.90
2018-02-20T08:30:56.562Z,19.00
2018-02-20T08:33:24.195Z,19.10
2018-02-20T08:35:51.933Z,19.10
2018-02-20T08:38:19.497Z,19.10
2018-02-20T08:40:47.054Z,19.10
2018-02-20T08:43:14.763Z,19.20
2018-02-20T08:45:42.367Z,19.30
2018-02-20T08:48:09.987Z,19.30
2018-02-20T08:50:38.273Z,19.30
2018-02-20T08:53:05.843Z,19.30
2018-02-20T08:55:33.483Z,19.40
2018-02-20T08:58:01.354Z,19.40
2018-02-20T09:00:28.928Z,19.40
2018-02-20T09:02:56.490Z,19.40
2018-02-20T09:05:24.081Z,19.30
2018-02-20T09:07:51.658Z,19.10
2018-02-20T09:10:19.262Z,19.00
2018-02-20T09:12:47.777Z,18.70
2018-02-20T09:15:15.351Z,18.70
2018-02-20T09:17:42.922Z,18.60
2018-02-20T09:20:10.516Z,18.50
2018-02-20T09:22:38.092Z,18.50
2018-02-20T09:25:05.670Z,18.50
2018-02-20T09:27:34.103Z,18.50
2018-02-20T09:30:01.678Z,18.50
2018-02-20T09:32:29.242Z,18.60
2018-02-20T09:34:57.044Z,18.70
2018-02-20T09:37:24.610Z,18.70
2018-02-20T09:39:52.178Z,18.80
2018-02-20T09:42:19.783Z,18.90
2018-02-20T09:44:48.114Z,19.10
2018-02-20T09:47:15.728Z,19.10
2018-02-20T09:49:43.303Z,19.10
2018-02-20T09:52:10.880Z,19.10
2018-02-20T09:54:38.434Z,19.10
2018-02-20T09:57:06.006Z,19.10
2018-02-20T09:59:33.759Z,19.20
2018-02-20T10:02:02.098Z,19.20
2018-02-20T10:04:29.700Z,19.20
2018-02-20T10:06:58.043Z,19.20
2018-02-20T10:09:25.630Z,19.20
2018-02-20T10:11:53.546Z,19.30
2018-02-20T10:14:21.128Z,19.30
2018-02-20T10:16:48.804Z,19.30
2018-02-20T10:19:16.352Z,19.30
2018-02-20T10:21:44.117Z,19.30
2018-02-20T10:24:11.714Z,19.40
2018-02-20T10:26:39.286Z,19.40
2018-02-20T10:29:06.878Z,19.40
2018-02-20T10:31:34.462Z,19.40
2018-02-20T10:34:02.798Z,19.40
2018-02-20T10:36:31.303Z,19.50
2018-02-20T10:38:58.860Z,19.50
2018-02-20T10:41:26.507Z,19.60
2018-02-20T10:43:54.074Z,19.60
2018-02-20T10:46:21.740Z,19.60
2018-02-20T10:48:49.781Z,19.70
2018-02-20T10:51:18.131Z,19.80
2018-02-20T10:53:45.771Z,19.70
2018-02-20T10:56:13.467Z,19.70
2018-02-20T10:58:41.126Z,19.70
2018-02-20T11:01:08.751Z,19.70
2018-02-20T11:03:36.318Z,19.60
2018-02-20T11:06:03.957Z,19.50
2018-02-20T11:08:32.331Z,19.30
2018-02-20T11:10:59.898Z,19.30
2018-02-20T11:13:27.785Z,19.20
2018-02-20T11:15:56.132Z,19.00
2018-02-20T11:18:23.711Z,19.00
2018-02-20T11:20:51.277Z,19.00
2018-02-20T11:23:18.850Z,19.00
2018-02-20T11:25:46.448Z,19.10
2018-02-20T11:28:14.124Z,19.10
2018-02-20T11:30:41.687Z,19.10
2018-02-20T11:33:09.259Z,19.10
2018-02-20T11:35:36.959Z,19.20
2018-02-20T11:38:04.539Z,19.20
2018-02-20T11:40:32.264Z,19.30
2018-02-20T11:42:59.842Z,19.40
2018-02-20T11:45:27.403Z,19.40
2018-02-20T11:47:55.147Z,19.50
2018-02-20T11:50:23.155Z,19.60
2018-02-20T11:52:50.725Z,19.70
2018-02-20T11:55:18.360Z,19.80
2018-02-20T11:57:46.029Z,19.80
2018-02-20T12:00:13.747Z,19.80
2018-02-20T12:02:41.338Z,19.80
2018-02-20T12:05:09.714Z,19.80
2018-02-20T12:07:37.423Z,19.80
2018-02-20T12:10:05.131Z,19.80
2018-02-20T12:12:32.778Z,19.80
2018-02-20T12:15:00.661Z,19.80
2018-02-20T12:17:28.217Z,19.90
2018-02-20T12:19:55.874Z,19.90
2018-02-20T12:22:23.453Z,19.90
2018-02-20T12:24:51.016Z,19.90
2018-02-20T12:27:19.660Z,19.90
2018-02-20T12:29:47.992Z,19.90
2018-02-20T12:32:15.605Z,19.90
2018-02-20T12:34:43.928Z,19.90
2018-02-20T12:37:11.494Z,19.90
2018-02-20T12:39:39.090Z,19.90
2018-02-20T12:42:06.664Z,19.90
2018-02-20T12:44:34.228Z,19.90
2018-02-20T12:47:01.885Z,19.90
2018-02-20T12:49:29.450Z,19.80
2018-02-20T12:51:57.046Z,19.70
2018-02-20T12:54:25.380Z,19.80
2018-02-20T12:56:52.956Z,19.80
2018-02-20T12:59:20.684Z,19.80
2018-02-20T13:01:48.257Z,19.80
2018-02-20T13:04:15.846Z,19.80
2018-02-20T13:06:43.409Z,19.70
2018-02-20T13:09:10.985Z,19.70
2018-02-20T13:11:38.548Z,19.60
2018-02-20T13:14:06.138Z,19.50
2018-02-20T13:16:35.613Z,19.30
2018-02-20T13:19:03.181Z,19.20
2018-02-20T13:21:30.737Z,19.20
2018-02-20T13:23:58.315Z,19.20
2018-02-20T13:26:26.010Z,19.20
2018-02-20T13:28:53.679Z,19.20
2018-02-20T13:31:21.243Z,19.30
2018-02-20T13:33:48.812Z,19.30
2018-02-20T13:36:16.369Z,19.30
2018-02-20T13:38:43.945Z,19.30
2018-02-20T13:41:11.558Z,19.30
2018-02-20T13:43:39.136Z,19.40
2018-02-20T13:46:06.718Z,19.50
2018-02-20T13:48:34.274Z,19.60
2018-02-20T13:51:01.848Z,19.60
2018-02-20T13:53:29.802Z,19.70
2018-02-20T13:55:57.475Z,19.70
2018-02-20T13:58:25.022Z,19.80
2018-02-20T14:00:52.702Z,19.80
2018-02-20T14:03:20.259Z,19.90
2018-02-20T14:05:47.844Z,19.90
2018-02-20T14:08:15.414Z,19.90
2018-02-20T14:10:43.046Z,19.80
2018-02-20T14:13:11.401Z,19.70
2018-02-20T14:15:38.969Z,19.70
2018-02-20T14:18:06.612Z,19.80
2018-02-20T14:20:34.206Z,19.70
2018-02-20T14:23:01.765Z,19.70
2018-02-20T14:25:29.346Z,19.70
2018-02-20T14:27:56.898Z,19.80
2018-02-20T14:30:24.500Z,19.80
2018-02-20T14:32:52.057Z,19.80
2018-02-20T14:35:20.487Z,19.70
2018-02-20T14:37:48.081Z,19.70
2018-02-20T14:40:15.639Z,19.70
2018-02-20T14:42:43.243Z,19.70
2018-02-20T14:45:11.615Z,19.80
2018-02-20T14:47:39.951Z,19.80
2018-02-20T14:50:07.509Z,19.80
2018-02-20T14:52:35.076Z,19.70
2018-02-20T14:55:02.878Z,19.70
2018-02-20T14:57:30.437Z,19.70
2018-02-20T14:59:58.008Z,19.70
2018-02-20T15:02:25.584Z,19.70
2018-02-20T15:04:53.157Z,19.70
2018-02-20T15:07:20.748Z,19.70
2018-02-20T15:09:48.312Z,19.80
2018-02-20T15:12:16.634Z,19.70
2018-02-20T15:14:44.194Z,19.70
2018-02-20T15:17:11.753Z,19.70
2018-02-20T15:19:39.529Z,19.60
2018-02-20T15:22:07.140Z,19.50
2018-02-20T15:24:35.557Z,19.40
2018-02-20T15:27:03.127Z,19.40
2018-02-20T15:29:30.692Z,19.30
2018-02-20T15:31:58.333Z,19.20
2018-02-20T15:34:26.728Z,19.20
2018-02-20T15:36:55.090Z,19.20
2018-02-20T15:39:23.518Z,19.20
2018-02-20T15:41:51.071Z,19.20
2018-02-20T15:44:18.744Z,19.20
2018-02-20T15:46:46.306Z,19.20
2018-02-20T15:49:13.870Z,19.10
2018-02-20T15:51:41.501Z,19.10
2018-02-20T15:54:09.225Z,19.20
2018-02-20T15:56:36.819Z,19.20
2018-02-20T15:59:04.409Z,19.20
2018-02-20T16:01:32.034Z,19.20
2018-02-20T16:03:59.584Z,19.20
2018-02-20T16:06:27.245Z,19.20
2018-02-20T16:08:54.918Z,19.20
2018-02-20T16:11:22.526Z,19.30
2018-02-20T16:13:52.551Z,19.30
2018-02-20T16:16:20.237Z,19.30
2018-02-20T16:18:47.846Z,19.30
2018-02-20T16:21:16.345Z,19.30
2018-02-20T16:23:46.584Z,19.30
2018-02-20T16:26:14.264Z,19.40
2018-02-20T16:28:41.891Z,19.40
2018-02-20T16:31:09.647Z,19.40
2018-02-20T16:33:37.244Z,19.40
2018-02-20T16:36:04.817Z,19.40
2018-02-20T16:38:32.424Z,19.40
2018-02-20T16:41:00.878Z,19.40
2018-02-20T16:43:28.453Z,19.40
2018-02-20T16:45:56.074Z,19.40
2018-02-20T16:48:23.645Z,19.50
2018-02-20T16:50:51.229Z,19.50
2018-02-20T16:53:18.790Z,19.50
2018-02-20T16:55:46.350Z,19.50
2018-02-20T16:58:13.948Z,19.50
2018-02-20T17:00:41.524Z,19.50
2018-02-20T17:03:09.069Z,19.40
2018-02-20T17:05:36.734Z,19.40
2018-02-20T17:08:04.310Z,19.40
2018-02-20T17:10:31.918Z,19.50
2018-02-20T17:13:00.259Z,19.50
2018-02-20T17:15:27.816Z,19.50
2018-02-20T17:17:55.389Z,19.50
2018-02-20T17:20:22.962Z,19.50
2018-02-20T17:22:50.563Z,19.50
2018-02-20T17:25:18.893Z,19.40
2018-02-20T17:27:46.502Z,19.40
2018-02-20T17:30:14.848Z,19.20
2018-02-20T17:32:42.448Z,19.20
2018-02-20T17:35:10.024Z,19.20
2018-02-20T17:37:37.638Z,19.10
2018-02-20T17:40:05.984Z,19.00
2018-02-20T17:42:33.561Z,19.00
2018-02-20T17:45:01.154Z,18.90
2018-02-20T17:47:28.738Z,18.80
2018-02-20T17:49:56.306Z,18.70
2018-02-20T17:52:23.870Z,18.60
2018-02-20T17:54:51.441Z,18.50
2018-02-20T17:57:19.015Z,18.50
2018-02-20T17:59:46.622Z,18.50
2018-02-20T18:02:14.284Z,18.50
2018-02-20T18:04:41.861Z,18.50
2018-02-20T18:07:09.484Z,18.60
2018-02-20T18:09:37.056Z,18.70
2018-02-20T18:12:05.773Z,18.80
2018-02-20T18:14:33.362Z,18.80
2018-02-20T18:17:00.963Z,18.90
2018-02-20T18:19:28.545Z,18.90
2018-02-20T18:21:56.112Z,18.90
2018-02-20T18:24:24.483Z,19.00
2018-02-20T18:26:52.081Z,19.00
2018-02-20T18:29:19.672Z,19.00
2018-02-20T18:31:47.246Z,19.00
2018-02-20T18:34:14.844Z,19.10
2018-02-20T18:36:42.517Z,19.10
2018-02-20T18:39:10.122Z,19.10
2018-02-20T18:41:37.724Z,19.10
2018-02-20T18:44:05.293Z,19.20
2018-02-20T18:46:32.912Z,19.20
2018-02-20T18:49:01.332Z,19.30
2018-02-20T18:51:28.951Z,19.20
2018-02-20T18:53:57.492Z,19.40
2018-02-20T18:56:25.081Z,19.40
2018-02-20T18:58:52.677Z,19.50
2018-02-20T19:01:21.045Z,19.50
2018-02-20T19:03:49.393Z,19.40
2018-02-20T19:06:16.990Z,19.40
2018-02-20T19:08:45.320Z,19.40
2018-02-20T19:11:13.757Z,19.40
2018-02-20T19:13:41.351Z,19.40
2018-02-20T19:16:09.703Z,19.40
2018-02-20T19:18:37.298Z,19.40
2018-02-20T19:21:05.667Z,19.40
2018-02-20T19:23:33.306Z,19.40
2018-02-20T19:26:01.004Z,19.40
2018-02-20T19:28:29.351Z,19.50
2018-02-20T19:30:56.921Z,19.50
2018-02-20T19:33:24.539Z,19.50
2018-02-20T19:35:52.887Z,19.50
2018-02-20T19:38:20.494Z,19.50
2018-02-20T19:40:48.086Z,19.50
2018-02-20T19:43:15.676Z,19.50
2018-02-20T19:45:43.307Z,19.60
2018-02-20T19:48:10.894Z,19.60
2018-02-20T19:50:39.587Z,19.60
2018-02-20T19:53:07.189Z,19.70
2018-02-20T19:55:34.856Z,19.60
2018-02-20T19:58:02.450Z,19.60
2018-02-20T20:00:30.056Z,19.60
2018-02-20T20:02:57.705Z,19.50
2018-02-20T20:05:25.281Z,19.40
2018-02-20T20:07:52.893Z,19.30
2018-02-20T20:10:21.261Z,19.20
2018-02-20T20:12:50.054Z,19.20
2018-02-20T20:15:17.691Z,19.10
2018-02-20T20:17:45.300Z,19.10
2018-02-20T20:20:12.916Z,19.20
2018-02-20T20:22:40.553Z,19.30
2018-02-20T20:25:09.155Z,19.30
2018-02-20T20:27:36.782Z,19.30
2018-02-20T20:30:04.401Z,19.30
2018-02-20T20:32:32.014Z,19.30
2018-02-20T20:34:59.644Z,19.30
2018-02-20T20:37:27.240Z,19.30
2018-02-20T20:39:54.860Z,19.40
2018-02-20T20:42:22.459Z,19.40
2018-02-20T20:44:50.089Z,19.30
2018-02-20T20:47:17.747Z,19.30
2018-02-20T20:49:46.099Z,19.10
2018-02-20T20:52:13.731Z,19.10
2018-02-20T20:54:41.299Z,19.00
2018-02-20T20:57:08.899Z,18.90
2018-02-20T20:59:36.492Z,18.80
2018-02-20T21:02:04.971Z,18.60
2018-02-20T21:04:32.766Z,18.60
2018-02-20T21:07:00.543Z,18.50
2018-02-20T21:09:28.105Z,18.40
2018-02-20T21:11:55.706Z,18.30
2018-02-20T21:14:23.281Z,18.10
2018-02-20T21:16:50.891Z,18.00
2018-02-20T21:19:18.454Z,17.90
2018-02-20T21:21:46.077Z,17.80
2018-02-20T21:24:13.647Z,17.70
2018-02-20T21:26:41.214Z,17.60
2018-02-20T21:29:08.871Z,17.50
2018-02-20T21:31:36.452Z,17.40
2018-02-20T21:34:04.055Z,17.30
2018-02-20T21:36:32.410Z,17.20
2018-02-20T21:38:59.978Z,17.10
2018-02-20T21:41:27.600Z,17.10
2018-02-20T21:43:55.174Z,17.00
2018-02-20T21:46:22.749Z,16.90
2018-02-20T21:48:50.316Z,16.80
2018-02-20T21:51:17.901Z,16.70
2018-02-20T21:53:45.499Z,16.70
2018-02-20T21:56:13.240Z,16.60
2018-02-20T21:58:41.052Z,16.60
2018-02-20T22:01:08.639Z,16.50
2018-02-20T22:03:36.198Z,16.40
2018-02-20T22:06:03.784Z,16.40
2018-02-20T22:08:31.361Z,16.30
2018-02-20T22:10:58.952Z,16.30
2018-02-20T22:13:26.564Z,16.20
2018-02-20T22:15:54.219Z,16.20
2018-02-20T22:18:21.822Z,16.10
2018-02-20T22:20:49.399Z,16.10
2018-02-20T22:23:18.475Z,16.00
2018-02-20T22:25:46.056Z,16.00
2018-02-20T22:28:13.733Z,15.90
2018-02-20T22:30:41.605Z,15.90
2018-02-20T22:33:09.157Z,15.90
2018-02-20T22:35:36.878Z,15.80
2018-02-20T22:38:04.455Z,15.80
2018-02-20T22:40:32.026Z,15.70
2018-02-20T22:42:59.658Z,15.70
2018-02-20T22:45:28.001Z,15.60
2018-02-20T22:47:55.594Z,15.60
2018-02-20T22:50:23.149Z,15.60
2018-02-20T22:52:50.773Z,15.50
2018-02-20T22:55:18.366Z,15.50
2018-02-20T22:57:46.022Z,15.50
2018-02-20T23:00:13.597Z,15.50
2018-02-20T23:02:41.163Z,15.50
2018-02-20T23:05:08.751Z,15.40
2018-02-20T23:07:36.354Z,15.40
2018-02-20T23:10:04.776Z,15.30
2018-02-20T23:12:32.363Z,15.30
2018-02-20T23:14:59.965Z,15.30
2018-02-20T23:17:28.307Z,15.30
2018-02-20T23:19:55.914Z,15.20
2018-02-20T23:22:24.239Z,15.20
2018-02-20T23:24:51.818Z,15.20
2018-02-20T23:27:19.396Z,15.20
2018-02-20T23:29:47.739Z,15.10
2018-02-20T23:32:15.627Z,15.10
2018-02-20T23:34:43.194Z,15.10
2018-02-20T23:37:10.779Z,15.10
2018-02-20T23:39:38.347Z,15.10
2018-02-20T23:42:05.933Z,15.10
2018-02-20T23:44:33.527Z,15.10
2018-02-20T23:47:01.087Z,15.10
2018-02-20T23:49:29.423Z,15.00
2018-02-20T23:51:56.993Z,15.00
2018-02-20T23:54:24.639Z,15.00
2018-02-20T23:56:52.368Z,15.00
2018-02-20T23:59:20.711Z,15.00
